Time;durP1;ratioP1;P1;durP2;ratioP2;P2;SDS_P1;SDS_P2;PMS_P1;PMS_P2;Temp;Humidity;BMP_temperature;BMP_pressure;BME280_temperature;BME280_humidity;BME280_pressure;Samples;Min_cycle;Max_cycle;Signal;HPM_P1;HPM_P2
2022/04/08 00:02:22;;;;;;;;;11.00;11.00;;;;;12.25;74.20;97697.22;6320515;20;2789856;-54
2022/04/08 00:04:50;;;;;;;;;14.00;13.00;;;;;12.16;74.62;97690.91;6290178;20;2802695;-53
2022/04/08 00:07:18;;;;;;;;;11.00;11.00;;;;;12.26;74.33;97694.34;6292017;20;2785693;-53
2022/04/08 00:09:45;;;;;;;;;13.50;13.00;;;;;12.04;75.16;97684.91;6284281;20;2796126;-54
2022/04/08 00:12:15;;;;;;;;;9.80;9.60;;;;;11.93;75.50;97687.84;6312741;20;2792048;-55
2022/04/08 00:14:45;;;;;;;;;13.20;13.00;;;;;12.02;75.17;97688.75;6308499;20;2797132;-53
2022/04/08 00:17:12;;;;;;;;;16.00;11.00;;;;;11.93;75.44;97687.84;6284270;20;2796081;-55
2022/04/08 00:19:41;;;;;;;;;14.67;12.00;;;;;11.52;76.84;97681.97;6285451;20;3533640;-54
2022/04/08 00:22:09;;;;;;;;;12.50;10.50;;;;;11.24;78.52;97685.63;6320016;20;2789836;-53
2022/04/08 00:24:39;;;;;;;;;13.60;12.00;;;;;11.26;78.91;97681.81;6308217;20;2797136;-54
2022/04/08 00:27:07;;;;;;;;;12.67;12.67;;;;;11.24;79.03;97682.94;6284952;20;2789977;-53
2022/04/08 00:29:36;;;;;;;;;13.33;11.67;;;;;11.24;79.25;97688.31;6315794;20;3548188;-53
2022/04/08 00:32:04;;;;;;;;;13.50;12.00;;;;;11.41;78.47;97703.66;6318592;20;2796144;-53
2022/04/08 00:34:32;;;;;;;;;14.00;14.00;;;;;11.32;78.67;97699.16;6286453;20;2810685;-53
2022/04/08 00:37:00;;;;;;;;;13.00;12.00;;;;;11.35;78.46;97710.47;6284420;20;2794040;-54
2022/04/08 00:39:29;;;;;;;;;15.67;13.00;;;;;11.40;78.21;97718.94;6286388;20;3541920;-54
2022/04/08 00:42:00;;;;;;;;;14.50;12.50;;;;;11.28;78.91;97713.91;6316151;20;2789990;-51
2022/04/08 00:44:29;;;;;;;;;10.00;10.00;;;;;11.26;78.97;97716.72;6281730;20;2791946;-55
2022/04/08 00:46:57;;;;;;;;;11.50;10.50;;;;;11.42;78.73;97721.47;6284915;20;2794036;-54
2022/04/08 00:49:27;;;;;;;;;16.80;13.60;;;;;11.38;78.40;97715.56;6304668;20;2797178;-54
2022/04/08 00:51:56;;;;;;;;;10.80;10.80;;;;;11.57;77.66;97725.34;6309739;20;2788838;-54
2022/04/08 00:54:26;;;;;;;;;11.80;11.80;;;;;11.40;78.02;97718.06;6306634;20;2795177;-54
2022/04/08 00:56:54;;;;;;;;;11.00;10.00;;;;;11.39;78.50;97717.22;6282193;20;2787761;-54
2022/04/08 00:59:24;;;;;;;;;13.00;11.00;;;;;11.60;77.35;97729.59;6285766;20;2791921;-54
2022/04/08 01:01:53;;;;;;;;;14.00;12.67;;;;;11.76;76.96;97745.91;6284011;20;3542922;-53
2022/04/08 01:04:23;;;;;;;;;12.00;12.00;;;;;11.79;76.43;97744.75;6318287;20;2804635;-52
2022/04/08 01:06:52;;;;;;;;;11.67;10.00;;;;;11.83;76.97;97740.78;6282865;20;2786737;-54
2022/04/08 01:09:21;;;;;;;;;13.00;11.00;;;;;11.94;76.15;97747.84;6313440;20;2792004;-55
2022/04/08 01:11:51;;;;;;;;;11.60;10.60;;;;;11.81;75.92;97743.63;6338129;20;2786719;-51
2022/04/08 01:14:21;;;;;;;;;13.40;11.00;;;;;11.68;76.51;97732.38;6308002;20;2809671;-51
2022/04/08 01:16:49;;;;;;;;;13.00;10.00;;;;;11.78;76.44;97733.16;6283950;20;2779466;-53
2022/04/08 01:19:18;;;;;;;;;14.00;11.67;;;;;11.78;76.03;97726.94;6313632;20;3545070;-54
2022/04/08 01:21:46;;;;;;;;;12.67;12.33;;;;;11.77;76.74;97730.63;6315003;20;2792014;-53
2022/04/08 01:24:16;;;;;;;;;13.00;12.00;;;;;11.77;76.79;97725.25;6318579;20;2788917;-52
2022/04/08 01:26:44;;;;;;;;;17.00;14.00;;;;;11.83;76.45;97724.66;6279887;20;3546109;-48
2022/04/08 01:29:12;;;;;;;;;12.50;10.00;;;;;12.05;75.55;97723.41;6313351;20;2789925;-52
2022/04/08 01:31:43;;;;;;;;;12.00;11.00;;;;;11.88;76.04;97727.78;6284239;20;2787795;-52
2022/04/08 01:34:13;;;;;;;;;13.00;11.33;;;;;11.86;75.76;97735.13;6281955;20;3517956;-49
2022/04/08 01:36:42;;;;;;;;;13.33;13.33;;;;;11.91;75.32;97740.06;6311476;20;2799320;-54
2022/04/08 01:39:10;;;;;;;;;11.67;11.67;;;;;11.99;75.55;97750.91;6313682;20;3530564;-53
2022/04/08 01:41:40;;;;;;;;;12.60;12.60;;;;;11.64;76.75;97744.44;6337420;20;2802354;-56
2022/04/08 01:44:09;;;;;;;;;12.00;12.00;;;;;11.83;76.32;97744.31;6283516;20;3515890;-54
2022/04/08 01:46:37;;;;;;;;;14.00;13.00;;;;;11.95;75.56;97755.72;6316984;20;2806527;-54
2022/04/08 01:49:06;;;;;;;;;15.67;13.33;;;;;12.03;74.40;97763.06;6283098;20;3542935;-53
2022/04/08 01:51:34;;;;;;;;;15.50;14.00;;;;;12.05;74.62;97761.91;6316430;20;2807666;-53
2022/04/08 01:54:02;;;;;;;;;18.67;16.33;;;;;12.22;74.17;97767.50;6284249;20;3554875;-49
2022/04/08 01:56:31;;;;;;;;;21.00;14.00;;;;;12.15;73.67;97771.78;6310741;20;2833703;-49
2022/04/08 01:58:58;;;;;;;;;15.50;14.50;;;;;12.32;72.84;97784.38;6312890;20;2807599;-48
2022/04/08 02:01:27;;;;;;;;;14.00;13.00;;;;;12.48;71.63;97787.25;6280720;20;3530661;-50
2022/04/08 02:03:56;;;;;;;;;14.00;13.00;;;;;12.42;71.90;97782.47;6309541;20;3535651;-49
2022/04/08 02:06:24;;;;;;;;;18.00;14.00;;;;;12.47;71.98;97785.56;6281902;20;2813591;-50
2022/04/08 02:08:53;;;;;;;;;14.00;11.00;;;;;12.41;72.15;97786.19;6284328;20;2790233;-52
2022/04/08 02:11:22;;;;;;;;;15.33;13.33;;;;;12.22;72.97;97789.00;6278709;20;3536836;-48
2022/04/08 02:13:51;;;;;;;;;20.00;16.33;;;;;12.35;72.29;97802.94;6279164;20;2824245;-55
2022/04/08 02:16:20;;;;;;;;;16.00;15.00;;;;;12.10;73.19;97812.56;6309800;20;3541955;-54
2022/04/08 02:18:48;;;;;;;;;15.67;14.00;;;;;12.19;72.88;97800.91;6280280;20;3529457;-55
2022/04/08 02:21:19;;;;;;;;;14.33;14.33;;;;;12.20;73.26;97785.63;6313360;20;3531621;-54
2022/04/08 02:23:52;;;;;;;;;19.00;15.00;;;;;12.13;73.40;97790.75;6313258;20;2836745;-54
2022/04/08 02:26:20;;;;;;;;;14.33;13.67;;;;;12.31;72.89;97798.84;6280104;20;3531879;-53
2022/04/08 02:28:49;;;;;;;;;14.33;14.33;;;;;12.29;72.50;97807.06;6310754;20;3525382;-54
2022/04/08 02:31:18;;;;;;;;;14.00;12.33;;;;;12.28;73.11;97815.31;6281388;20;3541980;-53
2022/04/08 02:33:45;;;;;;;;;16.50;14.50;;;;;12.07;74.05;97813.72;6313324;20;2487834;-52
2022/04/08 02:36:14;;;;;;;;;15.00;13.00;;;;;12.12;73.63;97823.19;6276454;20;3518961;-54
2022/04/08 02:38:43;;;;;;;;;16.67;13.33;;;;;11.99;73.72;97837.84;6313062;20;3545119;-52
2022/04/08 02:41:11;;;;;;;;;16.33;14.67;;;;;12.15;73.57;97850.63;6279209;20;3535759;-54
2022/04/08 02:43:40;;;;;;;;;14.67;14.33;;;;;12.13;74.17;97860.69;6312107;20;3525298;-51
2022/04/08 02:46:08;;;;;;;;;15.33;13.33;;;;;12.03;74.24;97855.38;6310084;20;3546147;-52
2022/04/08 02:48:37;;;;;;;;;16.33;14.67;;;;;12.08;73.94;97842.34;6279520;20;3539913;-50
2022/04/08 02:51:05;;;;;;;;;19.00;18.00;;;;;11.94;74.12;97829.34;6314209;20;2828374;-54
2022/04/08 02:53:33;;;;;;;;;15.67;15.00;;;;;12.05;74.44;97833.69;6278880;20;3536702;-53
2022/04/08 02:56:03;;;;;;;;;18.00;15.67;;;;;11.96;74.86;97830.06;6311662;20;3536737;-52
2022/04/08 02:58:31;;;;;;;;;15.67;15.67;;;;;11.73;75.93;97826.88;6278806;20;3542984;-52
2022/04/08 03:01:00;;;;;;;;;18.00;17.67;;;;;11.85;75.82;97841.00;6310085;20;2823324;-51
2022/04/08 03:03:28;;;;;;;;;16.00;16.00;;;;;11.88;75.72;97856.84;6309278;20;2500414;-53
2022/04/08 03:05:58;;;;;;;;;18.67;17.33;;;;;11.70;76.42;97869.34;6277713;20;3562880;-52
2022/04/08 03:08:28;;;;;;;;;16.50;16.50;;;;;11.74;76.12;97878.78;6311563;20;2492042;-51
2022/04/08 03:10:57;;;;;;;;;16.67;15.67;;;;;11.67;76.43;97891.16;6278270;20;3529392;-51
2022/04/08 03:13:25;;;;;;;;;18.00;14.50;;;;;11.52;76.28;97899.66;6312202;20;2805456;-52
2022/04/08 03:15:54;;;;;;;;;21.00;17.00;;;;;11.61;76.62;97898.78;6275242;20;3560739;-54
2022/04/08 03:18:24;;;;;;;;;13.40;10.20;;;;;11.63;76.57;97912.91;6302912;20;2804452;-51
2022/04/08 03:20:52;;;;;;;;;24.50;21.50;;;;;11.55;76.47;97920.84;6281806;20;2841952;-54
2022/04/08 03:23:20;;;;;;;;;19.00;18.00;;;;;11.42;77.10;97926.53;6281764;20;2829475;-49
2022/04/08 03:25:49;;;;;;;;;23.50;22.00;;;;;11.55;76.92;97936.97;6281101;20;2830626;-52
2022/04/08 03:28:17;;;;;;;;;23.50;21.50;;;;;11.37;77.51;97933.31;6277264;20;2500393;-54
2022/04/08 03:30:46;;;;;;;;;24.00;20.00;;;;;11.44;77.65;97934.47;6277719;20;2845072;-53
2022/04/08 03:33:14;;;;;;;;;21.00;16.00;;;;;11.45;77.88;97938.00;6280800;20;2500287;-53
2022/04/08 03:35:42;;;;;;;;;20.00;18.00;;;;;11.43;77.45;97935.47;6274131;20;2496074;-55
2022/04/08 03:38:10;;;;;;;;;22.50;21.00;;;;;11.52;76.94;97939.97;6277486;20;2491977;-54
2022/04/08 03:40:38;;;;;;;;;26.50;20.00;;;;;11.40;77.58;97933.03;6278736;20;2850309;-52
2022/04/08 03:43:07;;;;;;;;;27.50;23.50;;;;;11.39;77.31;97952.84;6280012;20;2845030;-50
2022/04/08 03:45:36;;;;;;;;;28.00;21.00;;;;;11.39;77.57;97959.06;6281512;20;2858705;-52
2022/04/08 03:48:07;;;;;;;;;18.00;16.00;;;;;11.37;77.76;97965.56;6279814;20;3554400;-52
2022/04/08 03:50:35;;;;;;;;;25.50;23.00;;;;;11.52;76.72;97982.13;6276086;20;2491957;-51
2022/04/08 03:53:03;;;;;;;;;20.50;19.00;;;;;11.48;77.27;97988.75;6280531;20;2833586;-52
2022/04/08 03:55:31;;;;;;;;;19.00;17.33;;;;;11.52;77.37;98011.69;6280093;20;3556523;-51
2022/04/08 03:57:59;;;;;;;;;18.00;17.50;;;;;11.50;76.89;98016.34;6308732;20;2496147;-51
2022/04/08 04:00:28;;;;;;;;;17.50;17.00;;;;;11.61;76.80;98033.19;6281712;20;2819028;-52
2022/04/08 04:02:57;;;;;;;;;20.67;18.33;;;;;11.48;77.35;98035.31;6285556;20;2825278;-51
2022/04/08 04:05:25;;;;;;;;;20.00;18.00;;;;;11.40;77.91;98040.53;6311791;20;3577334;-51
2022/04/08 04:07:56;;;;;;;;;18.33;17.67;;;;;11.35;78.10;98042.81;6283131;20;3556483;-52
2022/04/08 04:10:25;;;;;;;;;18.50;16.50;;;;;11.33;78.35;98053.69;6284901;20;2821118;-53
2022/04/08 04:12:54;;;;;;;;;18.00;13.67;;;;;11.53;77.48;98059.94;6285553;20;3548152;-51
2022/04/08 04:15:22;;;;;;;;;19.00;14.00;;;;;11.68;76.71;98054.97;6283496;20;2810812;-55
2022/04/08 04:17:49;;;;;;;;;18.00;13.00;;;;;11.69;76.54;98056.69;6287125;20;2812834;-53
2022/04/08 04:20:17;;;;;;;;;9.50;9.00;;;;;11.76;76.77;98055.09;6289996;20;2740973;-55
2022/04/08 04:22:45;;;;;;;;;7.00;7.00;;;;;11.82;77.02;98056.38;6293378;20;2729414;-56
2022/04/08 04:25:12;;;;;;;;;2.00;2.00;;;;;11.95;nan;98056.97;6290762;20;2749208;-59
2022/04/08 04:27:40;;;;;;;;;2.50;2.00;;;;;12.22;75.11;98053.53;6290137;20;2748417;-59
2022/04/08 04:30:10;;;;;;;;;0.00;0.00;;;;;12.16;74.85;98062.16;6305779;20;1799266;-60
2022/04/08 04:32:38;;;;;;;;;0.00;0.00;;;;;12.14;74.74;98066.00;6339231;20;1805648;-60
2022/04/08 04:35:08;;;;;;;;;0.00;0.00;;;;;12.24;71.91;98075.78;6336767;20;1802400;-60
2022/04/08 04:37:37;;;;;;;;;0.00;0.00;;;;;12.32;71.35;98068.78;6336499;20;1804402;-60
2022/04/08 04:40:08;;;;;;;;;3.00;0.00;;;;;12.40;71.39;98064.41;6321343;20;2727331;-60
2022/04/08 04:42:36;;;;;;;;;0.00;0.00;;;;;12.49;70.38;98065.38;6306660;20;1807742;-60
2022/04/08 04:45:06;;;;;;;;;0.00;0.00;;;;;12.41;70.59;98058.03;6338137;20;1803490;-60
2022/04/08 04:47:34;;;;;;;;;0.00;0.00;;;;;12.66;70.19;98074.50;6338367;20;1803504;-60
2022/04/08 04:50:05;;;;;;;;;0.00;0.00;;;;;12.51;68.76;98083.06;6337960;20;1807656;-59
2022/04/08 04:52:33;;;;;;;;;0.00;0.00;;;;;12.63;68.86;98082.88;6340100;20;1809153;-60
2022/04/08 04:55:03;;;;;;;;;0.00;0.00;;;;;12.59;67.62;98076.94;6337828;20;1803478;-59
2022/04/08 04:57:31;;;;;;;;;1.00;0.00;;;;;12.61;67.04;98092.94;6319684;20;2733686;-59
2022/04/08 05:00:02;;;;;;;;;0.00;0.00;;;;;12.56;67.75;98093.41;6305718;20;1802384;-60
2022/04/08 05:02:31;;;;;;;;;0.00;0.00;;;;;12.63;66.13;98088.25;6335351;20;1797243;-60
2022/04/08 05:04:58;;;;;;;;;0.00;0.00;;;;;12.79;64.77;98090.34;6324308;20;2733594;-60
2022/04/08 05:07:27;;;;;;;;;0.00;0.00;;;;;12.75;64.17;98095.19;6305175;20;1802930;-60
2022/04/08 05:09:55;;;;;;;;;2.00;0.00;;;;;12.88;63.57;98092.16;6323072;20;2725246;-60
2022/04/08 05:12:22;;;;;;;;;0.50;0.50;;;;;12.91;63.28;98099.94;6291253;20;2731491;-60
2022/04/08 05:14:50;;;;;;;;;0.00;0.00;;;;;12.96;62.78;98109.25;6291815;20;2735720;-60
2022/04/08 05:17:18;;;;;;;;;2.00;0.00;;;;;12.73;61.22;98100.69;6290562;20;2727346;-59
2022/04/08 05:19:46;;;;;;;;;0.00;0.00;;;;;12.85;60.46;98120.22;6307627;20;1803446;-59
2022/04/08 05:22:16;;;;;;;;;0.00;0.00;;;;;12.83;59.06;98122.22;6337016;20;1803523;-60
2022/04/08 05:24:45;;;;;;;;;0.00;0.00;;;;;12.89;57.30;98121.63;6339583;20;1802447;-59
2022/04/08 05:27:13;;;;;;;;;0.00;0.00;;;;;12.86;55.63;98121.06;6323331;20;2729397;-59
2022/04/08 05:29:41;;;;;;;;;2.00;0.00;;;;;12.76;55.95;98121.09;6307213;20;1804322;-59
2022/04/08 05:32:10;;;;;;;;;1.00;0.00;;;;;12.69;57.36;98109.22;6338922;20;1803477;-60
2022/04/08 05:34:38;;;;;;;;;0.00;0.00;;;;;12.71;56.15;98120.69;6322456;20;2729421;-59
2022/04/08 05:37:07;;;;;;;;;0.00;0.00;;;;;12.71;55.19;98126.91;6306246;20;1800350;-59
2022/04/08 05:39:34;;;;;;;;;0.00;0.00;;;;;12.82;54.68;98125.91;6320565;20;2727327;-59
2022/04/08 05:42:05;;;;;;;;;1.00;1.00;;;;;12.82;53.77;98125.03;6307850;20;1803588;-60
2022/04/08 05:44:33;;;;;;;;;0.00;0.00;;;;;12.94;52.92;98124.72;6321644;20;2729433;-59
2022/04/08 05:47:01;;;;;;;;;2.25;0.75;;;;;12.91;52.58;98130.41;6303423;20;1802912;-60
2022/04/08 05:49:30;;;;;;;;;1.25;1.25;;;;;13.08;52.21;98125.22;6334544;20;1808624;-59
2022/04/08 05:51:57;;;;;;;;;1.00;1.00;;;;;13.13;51.63;98131.03;6323447;20;2731516;-60
2022/04/08 05:54:25;;;;;;;;;1.50;0.00;;;;;13.08;50.67;98146.78;6292830;20;2722126;-60
2022/04/08 05:56:54;;;;;;;;;1.00;0.00;;;;;13.20;49.91;98144.75;6307606;20;1803456;-60
2022/04/08 05:59:22;;;;;;;;;0.00;0.00;;;;;13.28;49.38;98143.03;6334550;20;1805639;-59
2022/04/08 06:01:50;;;;;;;;;1.00;0.00;;;;;13.20;48.00;98145.59;6320912;20;2725374;-60
2022/04/08 06:04:21;;;;;;;;;1.75;1.00;;;;;13.77;46.64;98140.91;6304651;20;1805678;-59
2022/04/08 06:06:50;;;;;;;;;1.00;0.00;;;;;13.93;45.59;98151.03;6339013;20;1801464;-59
2022/04/08 06:09:18;;;;;;;;;0.50;0.50;;;;;13.63;45.94;98149.50;6318046;20;2728526;-59
2022/04/08 06:11:46;;;;;;;;;0.50;0.00;;;;;13.53;45.01;98151.41;6296767;20;2731515;-59
2022/04/08 06:14:15;;;;;;;;;0.00;0.00;;;;;13.36;46.29;98159.31;6291267;20;2733581;-59
2022/04/08 06:16:42;;;;;;;;;0.50;0.00;;;;;13.16;46.73;98160.38;6292223;20;2733587;-59
2022/04/08 06:19:10;;;;;;;;;0.00;0.00;;;;;13.04;45.45;98180.44;6290895;20;2725291;-59
2022/04/08 06:21:39;;;;;;;;;2.00;1.00;;;;;13.04;48.84;98178.56;6305008;20;1804526;-60
2022/04/08 06:24:08;;;;;;;;;3.00;0.00;;;;;12.94;48.60;98183.16;6337169;20;1804542;-60
2022/04/08 06:26:36;;;;;;;;;1.00;1.00;;;;;13.06;47.11;98195.44;6320649;20;2727381;-59
2022/04/08 06:29:04;;;;;;;;;0.50;0.00;;;;;13.27;47.02;98210.56;6290625;20;2731508;-60
2022/04/08 06:31:33;;;;;;;;;0.00;0.00;;;;;13.11;46.49;98213.84;6303037;20;1804505;-60
2022/04/08 06:34:02;;;;;;;;;0.00;0.00;;;;;13.22;46.87;98221.78;6335207;20;1803486;-60
2022/04/08 06:36:30;;;;;;;;;2.00;1.00;;;;;13.31;46.45;98231.69;6318814;20;2737800;-60
2022/04/08 06:38:58;;;;;;;;;2.25;1.00;;;;;13.27;46.48;98243.78;6302722;20;1805576;-60
2022/04/08 06:41:26;;;;;;;;;6.00;2.00;;;;;13.10;49.55;98248.03;6318740;20;2748613;-60
2022/04/08 06:43:55;;;;;;;;;0.00;0.00;;;;;12.61;51.67;98255.38;6305104;20;1803583;-59
2022/04/08 06:46:23;;;;;;;;;1.50;0.50;;;;;12.57;54.52;98245.03;6336291;20;1803480;-60
2022/04/08 06:48:51;;;;;;;;;2.00;2.00;;;;;12.61;55.81;98241.91;6317714;20;2746122;-60
2022/04/08 06:51:19;;;;;;;;;4.00;2.00;;;;;12.42;58.58;98242.75;6289871;20;2734608;-60
2022/04/08 06:53:47;;;;;;;;;1.75;1.00;;;;;12.76;55.38;98239.59;6305151;20;1802425;-59
2022/04/08 06:56:15;;;;;;;;;3.00;2.00;;;;;13.01;54.41;98245.38;6317196;20;2754415;-60
2022/04/08 06:58:43;;;;;;;;;3.50;2.50;;;;;12.86;53.03;98245.81;6285741;20;2756511;-59
2022/04/08 07:01:11;;;;;;;;;4.00;3.00;;;;;13.00;53.70;98243.66;6288118;20;2756946;-60
2022/04/08 07:03:39;;;;;;;;;1.25;1.25;;;;;13.28;51.58;98239.22;6302501;20;1807072;-60
2022/04/08 07:06:08;;;;;;;;;2.25;1.00;;;;;13.16;51.87;98238.50;6334949;20;1803511;-59
2022/04/08 07:08:36;;;;;;;;;0.00;0.00;;;;;13.46;50.72;98247.41;6337536;20;1803259;-59
2022/04/08 07:11:04;;;;;;;;;0.00;0.00;;;;;13.47;48.60;98251.78;6321074;20;2727340;-60
2022/04/08 07:13:33;;;;;;;;;0.00;0.00;;;;;13.53;48.39;98254.75;6305783;20;1800333;-60
2022/04/08 07:16:01;;;;;;;;;0.00;0.00;;;;;13.62;46.61;98258.41;6336257;20;1803488;-59
2022/04/08 07:18:29;;;;;;;;;2.00;1.00;;;;;13.70;46.49;98266.59;6318029;20;2727348;-60
2022/04/08 07:20:56;;;;;;;;;1.00;1.00;;;;;13.59;46.83;98262.25;6290511;20;2733603;-60
2022/04/08 07:23:25;;;;;;;;;2.00;0.00;;;;;13.61;46.23;98256.69;6303483;20;1805589;-60
2022/04/08 07:25:53;;;;;;;;;2.00;1.00;;;;;14.32;44.77;98265.94;6320874;20;2730487;-60
2022/04/08 07:28:21;;;;;;;;;0.00;0.00;;;;;15.12;43.13;98262.28;6301074;20;1799835;-60
2022/04/08 07:30:50;;;;;;;;;1.00;1.00;;;;;15.02;41.72;98272.34;6320607;20;2744024;-61
2022/04/08 07:33:18;;;;;;;;;0.00;0.00;;;;;15.16;41.80;98287.13;6286155;20;2724228;-60
2022/04/08 07:35:47;;;;;;;;;1.00;0.75;;;;;15.43;41.55;98274.44;6306181;20;1807682;-61
2022/04/08 07:38:15;;;;;;;;;4.00;1.00;;;;;15.22;40.45;98296.47;6317942;20;2734609;-60
2022/04/08 07:40:44;;;;;;;;;0.00;0.00;;;;;15.25;41.29;98301.56;6304941;20;1803564;-60
2022/04/08 07:43:13;;;;;;;;;1.50;1.50;;;;;15.19;40.67;98303.03;6319999;20;2732596;-60
2022/04/08 07:45:41;;;;;;;;;2.00;0.50;;;;;16.13;37.47;98312.22;6295716;20;2731576;-61
2022/04/08 07:48:09;;;;;;;;;1.00;1.00;;;;;16.59;37.22;98339.78;6308454;20;1794568;-60
2022/04/08 07:50:37;;;;;;;;;1.00;1.00;;;;;17.53;35.98;98343.91;6323826;20;2735735;-59
2022/04/08 07:53:05;;;;;;;;;0.00;0.00;;;;;17.36;36.49;98331.41;6295631;20;2724606;-60
2022/04/08 07:55:34;;;;;;;;;0.00;0.00;;;;;16.82;35.49;98324.59;6296955;20;2727414;-60
2022/04/08 07:58:04;;;;;;;;;0.00;0.00;;;;;16.92;34.68;98323.59;6296147;20;2727380;-60
2022/04/08 08:00:33;;;;;;;;;0.00;0.00;;;;;17.55;34.27;98331.03;6310820;20;1800396;-60
2022/04/08 08:03:01;;;;;;;;;1.00;1.00;;;;;17.23;35.43;98331.91;6326115;20;2724320;-60
2022/04/08 08:05:31;;;;;;;;;1.00;1.00;;;;;18.11;34.21;98336.50;6294132;20;2728576;-61
2022/04/08 08:08:01;;;;;;;;;2.00;1.00;;;;;17.79;33.52;98332.88;6292864;20;2737751;-60
2022/04/08 08:10:39;;;;;;;;;0.00;0.00;;;;;17.48;33.01;98346.28;6291805;20;3399348;-60
2022/04/08 08:13:06;;;;;;;;;0.50;0.50;;;;;17.67;33.15;98351.38;6298223;20;2728420;-60
2022/04/08 08:15:36;;;;;;;;;1.00;0.00;;;;;17.59;32.04;98354.09;6295116;20;2733563;-60
2022/04/08 08:18:05;;;;;;;;;1.50;0.00;;;;;18.32;31.58;98350.31;6296551;20;2728401;-61
2022/04/08 08:20:33;;;;;;;;;2.00;0.00;;;;;17.60;31.96;98349.50;6293075;20;2732624;-61
2022/04/08 08:23:01;;;;;;;;;0.00;0.00;;;;;17.45;32.53;98330.34;6299570;20;2735702;-60
2022/04/08 08:25:29;;;;;;;;;0.00;0.00;;;;;16.98;33.42;98322.91;6295313;20;2727323;-61
2022/04/08 08:28:01;;;;;;;;;0.50;0.00;;;;;18.04;32.37;98336.38;6296251;20;2735685;-60
2022/04/08 08:30:31;;;;;;;;;1.00;0.00;;;;;18.53;31.17;98327.13;6293345;20;2730945;-60
2022/04/08 08:33:04;;;;;;;;;1.50;0.50;;;;;18.33;31.15;98332.19;6334766;20;2729484;-61
2022/04/08 08:35:33;;;;;;;;;0.00;0.00;;;;;18.30;32.02;98348.81;6324577;20;2735924;-60
2022/04/08 08:38:01;;;;;;;;;0.50;0.00;;;;;17.75;31.41;98348.63;6298838;20;2733617;-60
2022/04/08 08:40:33;;;;;;;;;1.00;0.00;;;;;17.81;32.16;98352.56;6297454;20;2732620;-61
2022/04/08 08:43:07;;;;;;;;;0.00;0.00;;;;;18.15;31.41;98365.00;6298028;20;2730881;-61
2022/04/08 08:45:36;;;;;;;;;0.00;0.00;;;;;18.42;32.25;98372.69;6296513;20;2726309;-61
2022/04/08 08:48:05;;;;;;;;;0.00;0.00;;;;;17.93;31.60;98388.31;6290838;20;2735688;-60
2022/04/08 08:50:32;;;;;;;;;0.00;0.00;;;;;18.74;30.84;98391.75;6294209;20;2727362;-60
2022/04/08 08:53:00;;;;;;;;;2.00;0.00;;;;;18.35;29.80;98376.28;6294342;20;2740984;-61
2022/04/08 08:55:28;;;;;;;;;1.50;1.00;;;;;18.92;29.87;98389.63;6297022;20;2735798;-61
2022/04/08 08:57:56;;;;;;;;;1.00;0.00;;;;;19.37;31.06;98382.50;6298096;20;2732570;-61
2022/04/08 09:00:25;;;;;;;;;0.00;0.00;;;;;18.36;31.09;98383.44;6322690;20;2735840;-61
2022/04/08 09:02:53;;;;;;;;;3.00;0.00;;;;;17.92;31.12;98381.19;6323988;20;2732581;-62
2022/04/08 09:05:26;;;;;;;;;2.00;2.00;;;;;18.48;31.46;98387.44;6299018;20;2741951;-61
2022/04/08 09:08:05;;;;;;;;;0.25;0.25;;;;;18.05;31.76;98392.38;6309735;20;1794115;-60
2022/04/08 09:10:40;;;;;;;;;1.00;1.00;;;;;17.96;31.57;98393.44;6320813;20;2735691;-60
2022/04/08 09:13:10;;;;;;;;;0.00;0.00;;;;;17.85;31.35;98402.78;6299144;20;2733623;-61
2022/04/08 09:15:41;;;;;;;;;0.00;0.00;;;;;17.69;31.67;98400.91;6294898;20;2725260;-60
2022/04/08 09:18:11;;;;;;;;;0.00;0.00;;;;;17.46;32.16;98399.91;6296762;20;2725255;-60
2022/04/08 09:20:45;;;;;;;;;0.00;0.00;;;;;17.10;33.26;98397.50;6292877;20;2735664;-61
2022/04/08 09:23:18;;;;;;;;;0.00;0.00;;;;;16.88;33.69;98399.84;6294696;20;2727373;-61
2022/04/08 09:26:00;;;;;;;;;0.00;0.00;;;;;17.09;32.95;98399.38;6292743;20;2732615;-61
2022/04/08 09:28:42;;;;;;;;;0.00;0.00;;;;;16.70;34.23;98419.94;6294146;20;2731499;-60
2022/04/08 09:31:20;;;;;;;;;1.00;0.00;;;;;17.33;33.83;98405.84;6293001;20;2726310;-60
2022/04/08 09:33:53;;;;;;;;;2.00;0.00;;;;;17.22;32.80;98407.03;6293984;20;2734615;-59
2022/04/08 09:36:32;;;;;;;;;2.00;0.00;;;;;17.83;30.75;98403.97;6292633;20;2730506;-61
2022/04/08 09:39:00;;;;;;;;;1.00;0.00;;;;;17.88;29.80;98424.16;6294899;20;2725344;-60
2022/04/08 09:41:45;;;;;;;;;2.00;0.00;;;;;18.14;28.97;98413.06;6291235;20;2726297;-60
2022/04/08 09:44:20;;;;;;;;;0.00;0.00;;;;;18.31;29.51;98410.31;6296649;20;2735713;-61
2022/04/08 09:46:48;;;;;;;;;0.50;0.50;;;;;18.91;29.54;98415.16;6290351;20;2731521;-60
2022/04/08 09:49:17;;;;;;;;;1.67;1.00;;;;;18.95;30.76;98408.31;6295419;20;2737789;-61
2022/04/08 09:51:50;;;;;;;;;1.00;0.00;;;;;18.63;30.36;98410.16;6323403;20;2735690;-60
2022/04/08 09:54:24;;;;;;;;;0.00;0.00;;;;;18.29;30.01;98406.91;6324333;20;2733586;-60
2022/04/08 09:56:59;;;;;;;;;3.67;1.00;;;;;17.81;29.96;98404.13;6294341;20;2741970;-60
2022/04/08 09:59:38;;;;;;;;;1.00;0.00;;;;;17.86;29.91;98409.06;6321600;20;2724247;-59
2022/04/08 10:02:27;;;;;;;;;2.00;0.00;;;;;18.16;30.03;98405.56;6292515;20;2732679;-59
2022/04/08 10:05:08;;;;;;;;;2.00;1.00;;;;;18.30;30.18;98389.56;6293442;20;2739888;-59
2022/04/08 10:07:39;;;;;;;;;1.00;0.00;;;;;18.43;30.29;98398.00;6294643;20;2729470;-59
2022/04/08 10:10:35;;;;;;;;;3.00;0.00;;;;;18.55;30.79;98410.19;6293325;20;2730639;-59
2022/04/08 10:13:31;;;;;;;;;1.00;0.00;;;;;18.68;31.00;98392.47;6298164;20;2727450;-60
2022/04/08 10:16:15;;;;;;;;;1.00;0.00;;;;;18.12;30.78;98382.50;6295231;20;2726468;-59
2022/04/08 10:18:45;;;;;;;;;0.00;0.00;;;;;18.10;31.74;98400.84;6296403;20;2735691;-59
2022/04/08 10:21:14;;;;;;;;;0.00;0.00;;;;;18.40;31.10;98401.94;6293491;20;2727369;-59
2022/04/08 10:23:55;;;;;;;;;1.00;0.00;;;;;18.24;31.22;98414.72;6291702;20;2735673;-58
2022/04/08 10:26:28;;;;;;;;;3.00;0.00;;;;;19.20;31.67;98417.16;6297905;20;2727389;-59
2022/04/08 10:28:56;;;;;;;;;0.00;0.00;;;;;18.96;30.59;98406.47;6292104;20;2726406;-59
2022/04/08 10:31:27;;;;;;;;;2.00;0.00;;;;;18.49;30.04;98405.47;6287467;20;2730501;-59
2022/04/08 10:33:59;;;;;;;;;0.00;0.00;;;;;17.87;31.59;98406.16;6321771;20;2731557;-59
2022/04/08 10:36:42;;;;;;;;;3.00;0.00;;;;;18.15;31.56;98422.06;6291224;20;2728368;-59
2022/04/08 10:39:23;;;;;;;;;2.00;0.50;;;;;18.12;30.16;98415.09;6294472;20;2727322;-59
2022/04/08 10:41:59;;;;;;;;;2.00;0.00;;;;;18.21;30.89;98421.34;6296518;20;2729410;-59
2022/04/08 10:44:41;;;;;;;;;3.00;0.00;;;;;18.29;30.47;98415.06;6296435;20;2731607;-59
2022/04/08 10:47:21;;;;;;;;;1.50;0.00;;;;;18.53;29.72;98431.25;6295904;20;2726355;-58
2022/04/08 10:50:01;;;;;;;;;0.00;0.00;;;;;18.74;29.42;98429.81;6295339;20;2733602;-59
2022/04/08 10:52:39;;;;;;;;;5.00;1.00;;;;;18.07;29.78;98427.53;6294592;20;2736706;-59
2022/04/08 10:55:11;;;;;;;;;0.00;0.00;;;;;17.78;30.31;98432.44;6295588;20;2727347;-59
2022/04/08 10:57:43;;;;;;;;;2.50;0.00;;;;;17.87;31.14;98443.31;6291975;20;2727335;-58
2022/04/08 11:00:18;;;;;;;;;0.00;0.00;;;;;17.52;30.93;98439.94;6293772;20;2723245;-58
2022/04/08 11:02:47;;;;;;;;;0.00;0.00;;;;;17.80;30.81;98447.75;6291178;20;2729410;-59
2022/04/08 11:05:16;;;;;;;;;2.00;0.50;;;;;17.45;31.36;98447.88;6291114;20;2728412;-59
2022/04/08 11:07:48;;;;;;;;;2.00;0.00;;;;;17.32;32.22;98439.41;6294095;20;2727412;-59
2022/04/08 11:10:21;;;;;;;;;0.00;0.00;;;;;17.16;32.32;98437.50;6287597;20;2726310;-59
2022/04/08 11:12:52;;;;;;;;;0.00;0.00;;;;;17.77;32.46;98438.91;6291835;20;2727324;-59
2022/04/08 11:15:28;;;;;;;;;0.00;0.00;;;;;17.69;31.62;98432.63;6290677;20;2729403;-59
2022/04/08 11:17:58;;;;;;;;;1.00;1.00;;;;;18.01;31.44;98441.78;6290878;20;2735656;-60
2022/04/08 11:20:27;;;;;;;;;0.00;0.00;;;;;18.13;31.54;98438.53;6292155;20;2732558;-58
2022/04/08 11:22:58;;;;;;;;;0.00;0.00;;;;;18.67;30.78;98434.25;6296510;20;2727388;-60
2022/04/08 11:25:29;;;;;;;;;0.00;0.00;;;;;18.26;30.31;98437.16;6301175;20;2729408;-59